createdAt,value
2018-11-10T00:00:43.400Z,98.23
2018-11-10T00:03:47.665Z,95.57
2018-11-10T00:06:52.001Z,100.80
2018-11-10T00:09:56.311Z,102.73
2018-11-10T00:13:00.456Z,104.87
2018-11-10T00:16:04.786Z,100.63
2018-11-10T00:19:08.880Z,99.57
2018-11-10T00:22:13.192Z,87.20
2018-11-10T00:25:17.300Z,98.93
2018-11-10T00:28:21.628Z,92.57
2018-11-10T00:31:27.336Z,92.83
2018-11-10T00:34:31.552Z,95.03
2018-11-10T00:37:35.654Z,100.57
2018-11-10T00:40:40.471Z,95.23
2018-11-10T00:43:44.772Z,96.43
2018-11-10T00:46:50.139Z,102.73
2018-11-10T00:49:55.524Z,97.00
2018-11-10T00:53:00.050Z,99.00
2018-11-10T00:56:05.504Z,96.27
2018-11-10T00:59:09.758Z,98.33
2018-11-10T01:02:13.842Z,100.80
2018-11-10T01:05:17.908Z,102.53
2018-11-10T01:08:22.279Z,105.37
2018-11-10T01:11:26.537Z,98.53
2018-11-10T01:14:32.205Z,94.60
2018-11-10T01:17:36.513Z,97.10
2018-11-10T01:20:42.189Z,92.93
2018-11-10T01:23:46.493Z,95.93
2018-11-10T01:26:50.804Z,96.90
2018-11-10T01:29:55.050Z,90.83
2018-11-10T01:32:59.364Z,94.80
2018-11-10T01:36:03.682Z,92.60
2018-11-10T01:39:09.939Z,89.50
2018-11-10T01:42:14.261Z,90.90
2018-11-10T01:45:18.651Z,89.63
2018-11-10T01:48:22.899Z,87.47
2018-11-10T01:51:27.214Z,84.00
2018-11-10T01:54:33.126Z,96.90
2018-11-10T01:57:37.472Z,94.80
2018-11-10T02:00:41.720Z,94.63
2018-11-10T02:03:46.051Z,90.80
2018-11-10T02:06:50.430Z,90.97
2018-11-10T02:09:54.678Z,90.60
2018-11-10T02:12:59.540Z,97.87
2018-11-10T02:16:03.836Z,93.23
2018-11-10T02:19:08.186Z,101.87
2018-11-10T02:22:12.515Z,92.57
2018-11-10T02:25:16.807Z,91.83
2018-11-10T02:28:21.171Z,95.43
2018-11-10T02:31:25.620Z,104.20
2018-11-10T02:34:29.885Z,95.37
2018-11-10T02:37:34.707Z,100.60
2018-11-10T02:40:38.996Z,95.73
2018-11-10T02:43:43.348Z,102.47
2018-11-10T02:46:47.577Z,95.27
2018-11-10T02:49:51.884Z,100.93
2018-11-10T02:52:56.222Z,98.40
2018-11-10T02:56:00.560Z,95.57
2018-11-10T02:59:06.171Z,102.70
2018-11-10T03:02:10.528Z,100.37
2018-11-10T03:05:14.840Z,108.17
2018-11-10T03:08:20.891Z,95.67
2018-11-10T03:11:25.219Z,99.67
2018-11-10T03:14:30.803Z,105.57
2018-11-10T03:17:35.094Z,106.50
2018-11-10T03:20:39.381Z,100.10
2018-11-10T03:23:43.738Z,106.57
2018-11-10T03:26:48.045Z,100.23
2018-11-10T03:29:52.744Z,99.03
2018-11-10T03:32:57.190Z,100.93
2018-11-10T03:36:01.469Z,101.33
2018-11-10T03:39:11.198Z,97.83
2018-11-10T03:42:15.542Z,98.37
2018-11-10T03:45:19.760Z,94.43
2018-11-10T03:48:23.968Z,100.80
2018-11-10T03:51:28.254Z,106.40
2018-11-10T03:54:33.597Z,102.77
2018-11-10T03:57:39.945Z,98.77
2018-11-10T04:00:44.892Z,101.30
2018-11-10T04:03:49.226Z,101.87
2018-11-10T04:06:53.532Z,100.17
2018-11-10T04:09:57.976Z,104.23
2018-11-10T04:13:02.384Z,94.97
2018-11-10T04:16:06.655Z,98.63
2018-11-10T04:19:11.096Z,102.53
2018-11-10T04:22:19.112Z,99.20
2018-11-10T04:25:23.330Z,101.20
2018-11-10T04:28:27.571Z,106.40
2018-11-10T04:31:31.813Z,93.47
2018-11-10T04:34:37.676Z,93.93
2018-11-10T04:37:41.999Z,104.00
2018-11-10T04:40:46.295Z,92.13
2018-11-10T04:43:50.644Z,103.17
2018-11-10T04:46:54.951Z,104.03
2018-11-10T04:49:58.977Z,97.40
2018-11-10T04:53:02.968Z,99.80
2018-11-10T04:56:07.321Z,92.07
2018-11-10T04:59:11.611Z,93.57
2018-11-10T05:02:18.604Z,98.97
2018-11-10T05:05:23.247Z,101.77
2018-11-10T05:08:28.475Z,94.83
2018-11-10T05:11:32.809Z,93.23
2018-11-10T05:14:37.119Z,101.30
2018-11-10T05:17:41.534Z,95.53
2018-11-10T05:20:45.783Z,100.43
2018-11-10T05:23:50.015Z,101.03
2018-11-10T05:26:54.744Z,103.03
2018-11-10T05:29:59.301Z,93.90
2018-11-10T05:33:03.561Z,100.73
2018-11-10T05:36:07.889Z,94.07
2018-11-10T05:39:12.224Z,95.03
2018-11-10T05:42:16.530Z,92.77
2018-11-10T05:45:22.091Z,92.73
2018-11-10T05:48:26.469Z,93.93
2018-11-10T05:51:31.308Z,96.97
2018-11-10T05:54:35.664Z,91.40
2018-11-10T05:57:40.460Z,96.40
2018-11-10T06:00:44.685Z,88.00
2018-11-10T06:03:49.023Z,87.83
2018-11-10T06:06:53.870Z,92.33
2018-11-10T06:09:59.121Z,92.27
2018-11-10T06:13:03.329Z,88.40
2018-11-10T06:16:07.739Z,96.30
2018-11-10T06:19:11.978Z,94.63
2018-11-10T06:22:16.341Z,88.93
2018-11-10T06:25:20.623Z,94.07
2018-11-10T06:28:24.939Z,95.70
2018-11-10T06:31:29.305Z,90.67
2018-11-10T06:34:33.592Z,94.83
2018-11-10T06:37:37.887Z,86.00
2018-11-10T06:40:43.567Z,86.47
2018-11-10T06:43:47.874Z,87.40
2018-11-10T06:46:52.185Z,90.90
2018-11-10T06:49:56.411Z,88.53
2018-11-10T06:53:01.751Z,87.87
2018-11-10T06:56:06.209Z,90.83
2018-11-10T06:59:10.512Z,88.07
2018-11-10T07:02:14.814Z,84.43
2018-11-10T07:05:19.044Z,82.67
2018-11-10T07:08:23.411Z,84.13
2018-11-10T07:11:27.846Z,78.30
2018-11-10T07:14:33.140Z,76.63
2018-11-10T07:17:37.510Z,71.23
2018-11-10T07:20:42.672Z,70.17
2018-11-10T07:23:46.955Z,69.57
2018-11-10T07:26:51.244Z,68.13
2018-11-10T07:29:55.568Z,66.70
2018-11-10T07:32:59.907Z,57.47
2018-11-10T07:36:04.214Z,59.67
2018-11-10T07:39:10.398Z,56.90
2018-11-10T07:42:15.732Z,63.90
2018-11-10T07:45:20.555Z,56.37
2018-11-10T07:48:24.886Z,60.30
2018-11-10T07:51:29.169Z,56.93
2018-11-10T07:54:33.413Z,55.93
2018-11-10T07:57:38.786Z,54.10
2018-11-10T08:00:43.146Z,49.50
2018-11-10T08:03:47.413Z,47.07
2018-11-10T08:06:51.710Z,51.47
2018-11-10T08:09:57.283Z,45.63
2018-11-10T08:13:01.612Z,45.67
2018-11-10T08:16:06.447Z,41.93
2018-11-10T08:19:11.759Z,40.67
2018-11-10T08:22:15.947Z,44.80
2018-11-10T08:25:20.273Z,40.60
2018-11-10T08:28:24.649Z,40.40
2018-11-10T08:31:28.960Z,44.83
2018-11-10T08:34:33.311Z,42.00
2018-11-10T08:37:37.591Z,38.57
2018-11-10T08:40:41.926Z,38.53
2018-11-10T08:43:46.257Z,37.63
2018-11-10T08:46:50.887Z,40.57
2018-11-10T08:49:55.204Z,39.80
2018-11-10T08:52:59.550Z,41.30
2018-11-10T08:56:03.863Z,38.03
2018-11-10T08:59:07.963Z,35.57
2018-11-10T09:02:12.188Z,36.57
2018-11-10T09:05:16.515Z,34.50
2018-11-10T09:08:20.940Z,35.50
2018-11-10T09:11:25.216Z,35.63
2018-11-10T09:14:29.230Z,37.53
2018-11-10T09:17:33.657Z,32.47
2018-11-10T09:20:38.696Z,31.10
2018-11-10T09:23:43.318Z,29.63
2018-11-10T09:26:47.540Z,30.37
2018-11-10T09:29:51.814Z,27.73
2018-11-10T09:32:56.128Z,31.40
2018-11-10T09:36:00.265Z,31.53
2018-11-10T09:39:05.404Z,30.23
2018-11-10T09:42:09.598Z,33.87
2018-11-10T09:45:15.111Z,32.67
2018-11-10T09:48:19.383Z,30.00
2018-11-10T09:51:24.738Z,29.23
2018-11-10T09:54:29.881Z,28.83
2018-11-10T09:57:34.199Z,29.60
2018-11-10T10:00:39.466Z,29.40
2018-11-10T10:03:44.628Z,28.67
2018-11-10T10:06:48.708Z,31.13
2018-11-10T10:09:53.004Z,30.17
2018-11-10T10:12:57.333Z,33.00
2018-11-10T10:16:01.692Z,28.93
2018-11-10T10:19:06.668Z,30.70
2018-11-10T10:22:11.004Z,32.63
2018-11-10T10:25:16.714Z,32.87
2018-11-10T10:28:21.143Z,33.77
2018-11-10T10:31:25.408Z,30.97
2018-11-10T10:34:30.846Z,29.77
2018-11-10T10:37:36.064Z,26.00
2018-11-10T10:40:41.462Z,28.77
2018-11-10T10:43:46.021Z,23.87
2018-11-10T10:46:50.211Z,22.43
2018-11-10T10:49:54.620Z,27.20
2018-11-10T10:52:58.932Z,26.00
2018-11-10T10:56:03.359Z,23.57
2018-11-10T10:59:07.578Z,22.97
2018-11-10T11:02:17.960Z,23.83
2018-11-10T11:05:27.539Z,22.57
2018-11-10T11:08:31.962Z,20.70
2018-11-10T11:11:36.045Z,20.30
2018-11-10T11:14:40.700Z,25.37
2018-11-10T11:17:45.560Z,25.93
2018-11-10T11:20:49.894Z,19.90
2018-11-10T11:23:54.846Z,18.40
2018-11-10T11:26:59.167Z,19.80
2018-11-10T11:30:03.745Z,20.60
2018-11-10T11:33:08.042Z,21.47
2018-11-10T11:36:12.390Z,21.30
2018-11-10T11:39:16.641Z,19.87
2018-11-10T11:42:21.157Z,18.43
2018-11-10T11:45:25.326Z,20.10
2018-11-10T11:48:29.673Z,17.37
2018-11-10T11:51:33.764Z,19.87
2018-11-10T11:54:37.862Z,15.23
2018-11-10T11:57:42.331Z,16.10
2018-11-10T12:00:46.532Z,17.83
2018-11-10T12:03:50.823Z,15.90
2018-11-10T12:06:55.141Z,16.90
2018-11-10T12:09:59.271Z,14.97
2018-11-10T12:13:03.597Z,16.27
2018-11-10T12:16:07.897Z,14.90
2018-11-10T12:19:12.243Z,15.70
2018-11-10T12:22:16.560Z,15.23
2018-11-10T12:25:20.852Z,14.63
2018-11-10T12:28:25.007Z,14.40
2018-11-10T12:31:29.372Z,13.63
2018-11-10T12:34:33.623Z,15.47
2018-11-10T12:37:38.008Z,13.33
2018-11-10T12:40:42.077Z,13.90
2018-11-10T12:43:46.383Z,15.00
2018-11-10T12:46:50.557Z,16.90
2018-11-10T12:49:54.818Z,16.20
2018-11-10T12:52:59.092Z,15.63
2018-11-10T12:56:03.483Z,16.20
2018-11-10T12:59:07.511Z,13.57
2018-11-10T13:02:11.794Z,13.80
2018-11-10T13:05:15.968Z,14.07
2018-11-10T13:08:20.305Z,16.53
2018-11-10T13:11:24.626Z,14.57
2018-11-10T13:14:28.911Z,14.20
2018-11-10T13:17:33.216Z,13.27
2018-11-10T13:20:37.527Z,14.53
2018-11-10T13:23:41.880Z,13.10
2018-11-10T13:26:46.177Z,15.27
2018-11-10T13:29:50.510Z,14.83
2018-11-10T13:32:54.809Z,13.17
2018-11-10T13:35:58.939Z,13.97
2018-11-10T13:39:03.050Z,15.20
2018-11-10T13:42:07.109Z,11.43
2018-11-10T13:45:12.492Z,15.17
2018-11-10T13:48:16.840Z,14.93
2018-11-10T13:51:21.167Z,16.50
2018-11-10T13:54:27.009Z,15.00
2018-11-10T13:57:31.363Z,14.80
2018-11-10T14:00:35.666Z,13.37
2018-11-10T14:03:43.794Z,13.57
2018-11-10T14:06:48.113Z,15.03
2018-11-10T14:09:52.414Z,17.67
2018-11-10T14:12:56.720Z,17.03
2018-11-10T14:16:01.050Z,14.57
2018-11-10T14:19:05.564Z,13.33
2018-11-10T14:22:09.944Z,15.87
2018-11-10T14:25:16.468Z,12.63
2018-11-10T14:28:22.126Z,14.07
2018-11-10T14:31:26.491Z,15.17
2018-11-10T14:34:30.788Z,15.00
2018-11-10T14:37:35.070Z,16.63
2018-11-10T14:40:39.584Z,14.37
2018-11-10T14:43:43.929Z,14.93
2018-11-10T14:46:48.102Z,15.43
2018-11-10T14:49:53.808Z,12.80
2018-11-10T14:52:58.296Z,13.60
2018-11-10T14:56:02.288Z,15.43
2018-11-10T14:59:06.574Z,13.03
2018-11-10T15:02:10.730Z,14.43
2018-11-10T15:05:15.222Z,12.97
2018-11-10T15:08:19.368Z,18.53
2018-11-10T15:11:23.978Z,18.43
2018-11-10T15:14:28.286Z,13.13
2018-11-10T15:17:32.974Z,14.73
2018-11-10T15:20:37.201Z,16.10
2018-11-10T15:23:41.561Z,15.37
2018-11-10T15:26:45.849Z,15.47
2018-11-10T15:29:51.452Z,13.47
2018-11-10T15:32:55.744Z,14.53
2018-11-10T15:36:01.244Z,13.30
2018-11-10T15:39:07.587Z,18.07
2018-11-10T15:42:11.736Z,15.10
2018-11-10T15:45:17.142Z,14.20
2018-11-10T15:48:21.563Z,15.00
2018-11-10T15:51:25.880Z,13.20
2018-11-10T15:54:31.320Z,12.97
2018-11-10T15:57:37.548Z,13.33
2018-11-10T16:00:43.341Z,13.07
2018-11-10T16:03:48.762Z,15.23
2018-11-10T16:06:53.021Z,14.03
2018-11-10T16:09:57.843Z,14.40
2018-11-10T16:13:03.057Z,15.70
2018-11-10T16:16:08.699Z,17.73
2018-11-10T16:19:13.069Z,14.33
2018-11-10T16:22:17.359Z,15.47
2018-11-10T16:25:22.398Z,14.73
2018-11-10T16:28:26.748Z,14.27
2018-11-10T16:31:31.073Z,14.73
2018-11-10T16:34:35.359Z,15.10
2018-11-10T16:37:39.840Z,15.43
2018-11-10T16:40:43.942Z,17.27
2018-11-10T16:43:48.091Z,18.03
2018-11-10T16:46:52.481Z,16.50
2018-11-10T16:49:56.819Z,17.03
2018-11-10T16:53:02.619Z,14.57
2018-11-10T16:56:09.431Z,15.20
2018-11-10T16:59:13.876Z,15.80
2018-11-10T17:02:18.111Z,16.93
2018-11-10T17:05:22.415Z,15.80
2018-11-10T17:08:27.890Z,16.43
2018-11-10T17:11:31.987Z,19.13
2018-11-10T17:14:38.278Z,16.50
2018-11-10T17:17:42.573Z,16.87
2018-11-10T17:20:46.895Z,19.87
2018-11-10T17:23:52.429Z,15.87
2018-11-10T17:26:57.538Z,18.67
2018-11-10T17:30:01.943Z,19.60
2018-11-10T17:33:07.297Z,17.83
2018-11-10T17:36:11.732Z,19.00
2018-11-10T17:39:16.477Z,20.13
2018-11-10T17:42:20.922Z,17.57
2018-11-10T17:45:25.068Z,24.50
2018-11-10T17:48:29.430Z,24.23
2018-11-10T17:51:33.800Z,21.43
2018-11-10T17:54:38.248Z,24.80
2018-11-10T17:57:44.355Z,23.50
2018-11-10T18:00:49.815Z,23.97
2018-11-10T18:03:54.259Z,23.47
2018-11-10T18:06:59.724Z,23.37
2018-11-10T18:10:04.297Z,26.80
2018-11-10T18:13:08.696Z,26.13
2018-11-10T18:16:12.957Z,21.93
2018-11-10T18:19:17.318Z,23.50
2018-11-10T18:22:21.612Z,25.37
2018-11-10T18:25:26.018Z,25.13
2018-11-10T18:28:30.241Z,26.47
2018-11-10T18:31:34.333Z,26.33
2018-11-10T18:34:40.794Z,28.67
2018-11-10T18:37:45.141Z,28.87
2018-11-10T18:40:50.446Z,28.43
2018-11-10T18:43:55.271Z,27.63
2018-11-10T18:46:59.784Z,28.73
2018-11-10T18:50:07.188Z,30.73
2018-11-10T18:53:11.463Z,30.70
2018-11-10T18:56:17.278Z,31.97
2018-11-10T18:59:21.648Z,31.03
2018-11-10T19:02:26.026Z,30.67
2018-11-10T19:05:30.418Z,29.10
2018-11-10T19:08:34.735Z,32.53
2018-11-10T19:11:39.404Z,34.23
2018-11-10T19:14:44.070Z,30.40
2018-11-10T19:17:48.423Z,34.10
2018-11-10T19:20:53.710Z,32.03
2018-11-10T19:23:58.174Z,29.53
2018-11-10T19:27:02.512Z,32.20
2018-11-10T19:30:11.900Z,31.23
2018-11-10T19:33:16.083Z,33.50
2018-11-10T19:36:21.115Z,32.83
2018-11-10T19:39:25.463Z,30.80
2018-11-10T19:42:29.599Z,35.63
2018-11-10T19:45:33.951Z,34.63
2018-11-10T19:48:38.984Z,34.03
2018-11-10T19:51:43.678Z,36.90
2018-11-10T19:54:47.743Z,37.97
2018-11-10T19:57:51.892Z,42.03
2018-11-10T20:00:56.349Z,42.77
2018-11-10T20:04:02.691Z,39.37
2018-11-10T20:07:07.576Z,38.47
2018-11-10T20:10:13.226Z,40.23
2018-11-10T20:13:17.557Z,39.40
2018-11-10T20:18:53.856Z,42.40
2018-11-10T20:21:58.458Z,37.47
2018-11-10T20:25:02.634Z,45.37
2018-11-10T20:28:06.781Z,44.90
2018-11-10T20:31:11.166Z,40.60
2018-11-10T20:34:15.619Z,41.33
2018-11-10T20:37:20.053Z,39.23
2018-11-10T20:40:25.615Z,43.40
2018-11-10T20:43:29.956Z,43.67
2018-11-10T20:46:34.299Z,42.33
2018-11-10T20:52:10.650Z,39.63
2018-11-10T20:55:15.220Z,39.37
2018-11-10T20:58:19.640Z,39.90
2018-11-10T21:01:25.162Z,41.30
2018-11-10T21:04:30.384Z,41.93
2018-11-10T21:07:35.437Z,44.37
2018-11-10T21:10:39.723Z,44.43
2018-11-10T21:13:44.445Z,43.47
2018-11-10T21:16:48.822Z,41.50
2018-11-10T21:19:54.337Z,46.43
2018-11-10T21:22:58.971Z,43.97
2018-11-10T21:26:03.343Z,41.87
2018-11-10T21:29:07.789Z,44.10
2018-11-10T21:32:12.076Z,46.77
2018-11-10T21:35:16.693Z,43.97
2018-11-10T21:38:20.914Z,44.03
2018-11-10T21:41:25.221Z,49.00
2018-11-10T21:44:30.070Z,42.90
2018-11-10T21:47:34.347Z,41.73
2018-11-10T21:50:38.758Z,46.20
2018-11-10T21:53:43.096Z,42.97
2018-11-10T21:56:47.465Z,39.07
2018-11-10T21:59:51.856Z,39.57
2018-11-10T22:02:56.214Z,39.33
2018-11-10T22:06:00.645Z,36.93
2018-11-10T22:09:07.802Z,40.43
2018-11-10T22:12:12.051Z,40.17
2018-11-10T22:15:18.766Z,38.43
2018-11-10T22:18:23.296Z,39.03
2018-11-10T22:21:27.588Z,37.97
2018-11-10T22:24:31.872Z,35.47
2018-11-10T22:27:36.357Z,33.47
2018-11-10T22:30:40.673Z,37.67
2018-11-10T22:33:45.359Z,34.93
2018-11-10T22:36:49.491Z,34.73
2018-11-10T22:39:55.043Z,35.00
2018-11-10T22:42:59.160Z,34.07
2018-11-10T22:46:03.593Z,38.43
2018-11-10T22:49:07.931Z,35.17
2018-11-10T22:52:12.204Z,38.30
2018-11-10T22:55:17.294Z,38.47
2018-11-10T22:58:21.648Z,37.33
2018-11-10T23:01:32.872Z,38.07
2018-11-10T23:04:37.196Z,37.63
2018-11-10T23:07:41.739Z,35.13
2018-11-10T23:10:46.964Z,35.13
2018-11-10T23:13:51.239Z,34.07
2018-11-10T23:17:01.763Z,31.87
2018-11-10T23:20:10.257Z,33.77
2018-11-10T23:23:15.692Z,38.40
2018-11-10T23:26:22.161Z,33.37
2018-11-10T23:29:28.253Z,29.73
2018-11-10T23:32:34.928Z,33.30
2018-11-10T23:35:41.023Z,32.87
2018-11-10T23:38:46.273Z,32.73
2018-11-10T23:41:50.631Z,33.60
2018-11-10T23:44:57.174Z,30.43
2018-11-10T23:48:10.826Z,32.57
2018-11-10T23:51:31.767Z,29.57
2018-11-10T23:54:51.377Z,30.13
2018-11-10T23:57:55.830Z,31.83
